sensor_id;sensor_type;location;lat;lon;timestamp;temperature;humidity
13808;DHT22;40769;51.512;5.494;2022-08-23T00:01:49;21.50;99.90
13808;DHT22;40769;51.512;5.494;2022-08-23T00:04:22;21.40;99.90
13808;DHT22;40769;51.512;5.494;2022-08-23T00:06:49;21.40;99.90
13808;DHT22;40769;51.512;5.494;2022-08-23T00:09:17;21.40;99.90
13808;DHT22;40769;51.512;5.494;2022-08-23T00:12:02;21.30;99.90
13808;DHT22;40769;51.512;5.494;2022-08-23T00:14:31;21.30;99.90
13808;DHT22;40769;51.512;5.494;2022-08-23T00:16:57;21.30;99.90
13808;DHT22;40769;51.512;5.494;2022-08-23T00:19:25;21.20;99.90
13808;DHT22;40769;51.512;5.494;2022-08-23T00:21:53;21.30;99.90
13808;DHT22;40769;51.512;5.494;2022-08-23T00:24:20;21.20;99.90
13808;DHT22;40769;51.512;5.494;2022-08-23T00:27:13;21.10;99.90
13808;DHT22;40769;51.512;5.494;2022-08-23T00:29:48;21.10;99.90
13808;DHT22;40769;51.512;5.494;2022-08-23T00:32:18;21.10;99.90
13808;DHT22;40769;51.512;5.494;2022-08-23T00:34:43;21.10;99.90
13808;DHT22;40769;51.512;5.494;2022-08-23T00:37:10;21.00;99.90
13808;DHT22;40769;51.512;5.494;2022-08-23T00:39:37;21.10;99.90
13808;DHT22;40769;51.512;5.494;2022-08-23T00:42:11;21.00;99.90
13808;DHT22;40769;51.512;5.494;2022-08-23T00:44:57;20.90;99.90
13808;DHT22;40769;51.512;5.494;2022-08-23T00:47:44;20.90;99.90
13808;DHT22;40769;51.512;5.494;2022-08-23T00:50:27;20.90;99.90
13808;DHT22;40769;51.512;5.494;2022-08-23T00:53:08;20.90;99.90
13808;DHT22;40769;51.512;5.494;2022-08-23T00:55:37;20.80;99.90
13808;DHT22;40769;51.512;5.494;2022-08-23T00:58:03;20.80;99.90
13808;DHT22;40769;51.512;5.494;2022-08-23T01:00:30;20.80;99.90
13808;DHT22;40769;51.512;5.494;2022-08-23T01:02:57;20.80;99.90
13808;DHT22;40769;51.512;5.494;2022-08-23T01:05:28;20.70;99.90
13808;DHT22;40769;51.512;5.494;2022-08-23T01:07:58;20.70;99.90
13808;DHT22;40769;51.512;5.494;2022-08-23T01:12:59;20.70;99.90
13808;DHT22;40769;51.512;5.494;2022-08-23T01:15:52;20.60;99.90
13808;DHT22;40769;51.512;5.494;2022-08-23T01:18:22;20.60;99.90
13808;DHT22;40769;51.512;5.494;2022-08-23T01:21:00;20.60;99.90
13808;DHT22;40769;51.512;5.494;2022-08-23T01:25:56;20.50;99.90
13808;DHT22;40769;51.512;5.494;2022-08-23T01:28:23;20.40;99.90
13808;DHT22;40769;51.512;5.494;2022-08-23T01:30:48;20.50;99.90
13808;DHT22;40769;51.512;5.494;2022-08-23T01:33:14;20.50;99.90
13808;DHT22;40769;51.512;5.494;2022-08-23T01:35:47;20.60;99.90
13808;DHT22;40769;51.512;5.494;2022-08-23T01:38:13;20.40;99.90
13808;DHT22;40769;51.512;5.494;2022-08-23T01:40:40;20.40;99.90
13808;DHT22;40769;51.512;5.494;2022-08-23T01:43:07;20.40;99.90
13808;DHT22;40769;51.512;5.494;2022-08-23T01:45:33;20.40;99.90
13808;DHT22;40769;51.512;5.494;2022-08-23T01:47:59;20.40;99.90
13808;DHT22;40769;51.512;5.494;2022-08-23T01:50:25;20.50;99.90
13808;DHT22;40769;51.512;5.494;2022-08-23T01:52:51;20.40;99.90
13808;DHT22;40769;51.512;5.494;2022-08-23T01:55:17;20.30;99.90
13808;DHT22;40769;51.512;5.494;2022-08-23T01:57:44;20.40;99.90
13808;DHT22;40769;51.512;5.494;2022-08-23T02:00:11;20.50;99.90
13808;DHT22;40769;51.512;5.494;2022-08-23T02:02:37;20.50;99.90
13808;DHT22;40769;51.512;5.494;2022-08-23T02:05:07;20.50;99.90
13808;DHT22;40769;51.512;5.494;2022-08-23T02:07:32;20.50;99.90
13808;DHT22;40769;51.512;5.494;2022-08-23T02:09:58;20.50;99.90
13808;DHT22;40769;51.512;5.494;2022-08-23T02:12:24;20.40;99.90
13808;DHT22;40769;51.512;5.494;2022-08-23T02:14:49;20.40;99.90
13808;DHT22;40769;51.512;5.494;2022-08-23T02:17:15;20.30;99.90
13808;DHT22;40769;51.512;5.494;2022-08-23T02:19:42;20.30;99.90
13808;DHT22;40769;51.512;5.494;2022-08-23T02:22:09;20.30;99.90
13808;DHT22;40769;51.512;5.494;2022-08-23T02:24:39;20.40;99.90
13808;DHT22;40769;51.512;5.494;2022-08-23T02:27:05;20.30;99.90
13808;DHT22;40769;51.512;5.494;2022-08-23T02:29:33;20.30;99.90
13808;DHT22;40769;51.512;5.494;2022-08-23T02:32:00;20.30;99.90
13808;DHT22;40769;51.512;5.494;2022-08-23T02:34:28;20.30;99.90
13808;DHT22;40769;51.512;5.494;2022-08-23T02:36:54;20.30;99.90
13808;DHT22;40769;51.512;5.494;2022-08-23T02:39:20;20.30;99.90
13808;DHT22;40769;51.512;5.494;2022-08-23T02:41:46;20.30;99.90
13808;DHT22;40769;51.512;5.494;2022-08-23T02:44:12;20.20;99.90
13808;DHT22;40769;51.512;5.494;2022-08-23T02:46:39;20.50;99.90
13808;DHT22;40769;51.512;5.494;2022-08-23T02:49:05;20.20;99.90
13808;DHT22;40769;51.512;5.494;2022-08-23T02:51:31;20.20;99.90
13808;DHT22;40769;51.512;5.494;2022-08-23T02:53:56;20.20;99.90
13808;DHT22;40769;51.512;5.494;2022-08-23T02:56:22;20.20;99.90
13808;DHT22;40769;51.512;5.494;2022-08-23T02:58:49;20.10;99.90
13808;DHT22;40769;51.512;5.494;2022-08-23T03:01:16;20.20;99.90
13808;DHT22;40769;51.512;5.494;2022-08-23T03:03:43;20.30;99.90
13808;DHT22;40769;51.512;5.494;2022-08-23T03:06:08;20.20;99.90
13808;DHT22;40769;51.512;5.494;2022-08-23T03:08:34;20.20;99.90
13808;DHT22;40769;51.512;5.494;2022-08-23T03:10:59;20.20;99.90
13808;DHT22;40769;51.512;5.494;2022-08-23T03:13:25;20.20;99.90
13808;DHT22;40769;51.512;5.494;2022-08-23T03:15:50;20.20;99.90
13808;DHT22;40769;51.512;5.494;2022-08-23T03:18:16;20.20;99.90
13808;DHT22;40769;51.512;5.494;2022-08-23T03:20:43;20.20;99.90
13808;DHT22;40769;51.512;5.494;2022-08-23T03:23:10;20.10;99.90
13808;DHT22;40769;51.512;5.494;2022-08-23T03:25:36;20.10;99.90
13808;DHT22;40769;51.512;5.494;2022-08-23T03:28:05;20.20;99.90
13808;DHT22;40769;51.512;5.494;2022-08-23T03:30:32;20.20;99.90
13808;DHT22;40769;51.512;5.494;2022-08-23T03:32:59;20.10;99.90
13808;DHT22;40769;51.512;5.494;2022-08-23T03:35:25;20.30;99.90
13808;DHT22;40769;51.512;5.494;2022-08-23T03:37:50;20.10;99.90
13808;DHT22;40769;51.512;5.494;2022-08-23T03:40:18;20.20;99.90
13808;DHT22;40769;51.512;5.494;2022-08-23T03:42:43;20.10;99.90
13808;DHT22;40769;51.512;5.494;2022-08-23T03:45:09;20.10;99.90
13808;DHT22;40769;51.512;5.494;2022-08-23T03:47:35;20.20;99.90
13808;DHT22;40769;51.512;5.494;2022-08-23T03:50:00;20.20;99.90
13808;DHT22;40769;51.512;5.494;2022-08-23T03:52:26;20.20;99.90
13808;DHT22;40769;51.512;5.494;2022-08-23T03:54:51;20.20;99.90
13808;DHT22;40769;51.512;5.494;2022-08-23T03:57:17;20.20;99.90
13808;DHT22;40769;51.512;5.494;2022-08-23T03:59:42;20.30;99.90
13808;DHT22;40769;51.512;5.494;2022-08-23T04:02:08;20.30;99.90
13808;DHT22;40769;51.512;5.494;2022-08-23T04:04:35;20.30;99.90
13808;DHT22;40769;51.512;5.494;2022-08-23T04:07:01;20.30;99.90
13808;DHT22;40769;51.512;5.494;2022-08-23T04:09:27;20.30;99.90
13808;DHT22;40769;51.512;5.494;2022-08-23T04:11:53;20.30;99.90
13808;DHT22;40769;51.512;5.494;2022-08-23T04:14:19;20.30;99.90
13808;DHT22;40769;51.512;5.494;2022-08-23T04:16:44;20.30;99.90
13808;DHT22;40769;51.512;5.494;2022-08-23T04:19:13;20.20;99.90
13808;DHT22;40769;51.512;5.494;2022-08-23T04:21:41;20.40;99.90
13808;DHT22;40769;51.512;5.494;2022-08-23T04:24:08;20.20;99.90
13808;DHT22;40769;51.512;5.494;2022-08-23T04:26:33;20.20;99.90
13808;DHT22;40769;51.512;5.494;2022-08-23T04:28:59;20.20;99.90
13808;DHT22;40769;51.512;5.494;2022-08-23T04:31:25;20.10;99.90
13808;DHT22;40769;51.512;5.494;2022-08-23T04:33:52;20.10;99.90
13808;DHT22;40769;51.512;5.494;2022-08-23T04:36:19;20.10;99.90
13808;DHT22;40769;51.512;5.494;2022-08-23T04:38:45;20.10;99.90
13808;DHT22;40769;51.512;5.494;2022-08-23T04:41:14;20.10;99.90
13808;DHT22;40769;51.512;5.494;2022-08-23T04:43:58;20.10;99.90
13808;DHT22;40769;51.512;5.494;2022-08-23T04:46:24;20.10;99.90
13808;DHT22;40769;51.512;5.494;2022-08-23T04:48:50;20.10;99.90
13808;DHT22;40769;51.512;5.494;2022-08-23T04:51:16;20.00;99.90
13808;DHT22;40769;51.512;5.494;2022-08-23T04:53:41;20.00;99.90
13808;DHT22;40769;51.512;5.494;2022-08-23T04:56:08;20.00;99.90
13808;DHT22;40769;51.512;5.494;2022-08-23T04:58:35;20.00;99.90
13808;DHT22;40769;51.512;5.494;2022-08-23T05:01:03;20.00;99.90
13808;DHT22;40769;51.512;5.494;2022-08-23T05:03:29;20.00;99.90
13808;DHT22;40769;51.512;5.494;2022-08-23T05:05:56;20.10;99.90
13808;DHT22;40769;51.512;5.494;2022-08-23T05:08:23;20.10;99.90
13808;DHT22;40769;51.512;5.494;2022-08-23T05:10:49;20.10;99.90
13808;DHT22;40769;51.512;5.494;2022-08-23T05:13:14;20.10;99.90
13808;DHT22;40769;51.512;5.494;2022-08-23T05:15:40;20.20;99.90
13808;DHT22;40769;51.512;5.494;2022-08-23T05:18:06;20.20;99.90
13808;DHT22;40769;51.512;5.494;2022-08-23T05:20:33;20.40;99.90
13808;DHT22;40769;51.512;5.494;2022-08-23T05:23:00;20.30;99.90
13808;DHT22;40769;51.512;5.494;2022-08-23T05:25:26;20.30;99.90
13808;DHT22;40769;51.512;5.494;2022-08-23T05:28:12;20.40;99.90
13808;DHT22;40769;51.512;5.494;2022-08-23T05:30:38;20.50;99.90
13808;DHT22;40769;51.512;5.494;2022-08-23T05:33:03;20.60;99.90
13808;DHT22;40769;51.512;5.494;2022-08-23T05:35:30;20.70;99.90
13808;DHT22;40769;51.512;5.494;2022-08-23T05:37:56;20.80;99.90
13808;DHT22;40769;51.512;5.494;2022-08-23T05:40:24;20.80;99.90
13808;DHT22;40769;51.512;5.494;2022-08-23T05:42:50;20.80;99.90
13808;DHT22;40769;51.512;5.494;2022-08-23T05:45:16;20.80;99.90
13808;DHT22;40769;51.512;5.494;2022-08-23T05:47:43;20.80;99.90
13808;DHT22;40769;51.512;5.494;2022-08-23T05:50:09;20.80;99.90
13808;DHT22;40769;51.512;5.494;2022-08-23T05:52:34;20.80;99.90
13808;DHT22;40769;51.512;5.494;2022-08-23T05:55:00;20.90;99.90
13808;DHT22;40769;51.512;5.494;2022-08-23T05:57:26;20.90;99.90
13808;DHT22;40769;51.512;5.494;2022-08-23T05:59:51;21.00;99.90
13808;DHT22;40769;51.512;5.494;2022-08-23T06:02:17;21.00;99.90
13808;DHT22;40769;51.512;5.494;2022-08-23T06:04:42;21.10;99.90
13808;DHT22;40769;51.512;5.494;2022-08-23T06:07:08;21.10;99.90
13808;DHT22;40769;51.512;5.494;2022-08-23T06:09:35;21.20;99.90
13808;DHT22;40769;51.512;5.494;2022-08-23T06:12:01;21.20;99.90
13808;DHT22;40769;51.512;5.494;2022-08-23T06:14:26;21.30;99.90
13808;DHT22;40769;51.512;5.494;2022-08-23T06:16:52;21.40;99.90
13808;DHT22;40769;51.512;5.494;2022-08-23T06:19:18;21.50;99.90
13808;DHT22;40769;51.512;5.494;2022-08-23T06:21:44;21.50;99.90
13808;DHT22;40769;51.512;5.494;2022-08-23T06:24:10;21.60;99.90
13808;DHT22;40769;51.512;5.494;2022-08-23T06:26:38;21.70;99.90
13808;DHT22;40769;51.512;5.494;2022-08-23T06:29:07;21.70;99.90
13808;DHT22;40769;51.512;5.494;2022-08-23T06:31:33;21.80;99.90
13808;DHT22;40769;51.512;5.494;2022-08-23T06:34:29;21.90;99.90
13808;DHT22;40769;51.512;5.494;2022-08-23T06:37:03;22.10;99.90
13808;DHT22;40769;51.512;5.494;2022-08-23T06:39:30;22.10;99.90
13808;DHT22;40769;51.512;5.494;2022-08-23T06:42:10;22.40;99.90
13808;DHT22;40769;51.512;5.494;2022-08-23T06:44:36;22.40;99.90
13808;DHT22;40769;51.512;5.494;2022-08-23T06:47:03;22.60;99.90
13808;DHT22;40769;51.512;5.494;2022-08-23T06:49:29;22.80;99.90
13808;DHT22;40769;51.512;5.494;2022-08-23T06:51:57;23.00;99.90
13808;DHT22;40769;51.512;5.494;2022-08-23T06:54:26;23.20;99.90
13808;DHT22;40769;51.512;5.494;2022-08-23T06:56:53;23.40;99.90
13808;DHT22;40769;51.512;5.494;2022-08-23T06:59:20;23.50;99.90
13808;DHT22;40769;51.512;5.494;2022-08-23T07:01:54;23.80;99.90
13808;DHT22;40769;51.512;5.494;2022-08-23T07:04:32;24.10;99.90
13808;DHT22;40769;51.512;5.494;2022-08-23T07:06:59;24.30;99.90
13808;DHT22;40769;51.512;5.494;2022-08-23T07:09:26;24.60;99.90
13808;DHT22;40769;51.512;5.494;2022-08-23T07:11:52;24.80;99.90
13808;DHT22;40769;51.512;5.494;2022-08-23T07:14:19;25.10;99.90
13808;DHT22;40769;51.512;5.494;2022-08-23T07:16:51;25.40;99.90
13808;DHT22;40769;51.512;5.494;2022-08-23T07:19:20;25.70;99.90
13808;DHT22;40769;51.512;5.494;2022-08-23T07:21:46;25.80;99.90
13808;DHT22;40769;51.512;5.494;2022-08-23T07:24:12;26.20;99.90
13808;DHT22;40769;51.512;5.494;2022-08-23T07:26:39;26.40;99.90
13808;DHT22;40769;51.512;5.494;2022-08-23T07:29:06;26.70;99.90
13808;DHT22;40769;51.512;5.494;2022-08-23T07:31:37;26.90;99.90
13808;DHT22;40769;51.512;5.494;2022-08-23T07:34:04;27.10;99.90
13808;DHT22;40769;51.512;5.494;2022-08-23T07:36:31;27.30;99.90
13808;DHT22;40769;51.512;5.494;2022-08-23T07:38:57;27.50;99.90
13808;DHT22;40769;51.512;5.494;2022-08-23T07:41:25;27.70;99.90
13808;DHT22;40769;51.512;5.494;2022-08-23T07:43:54;28.00;99.90
13808;DHT22;40769;51.512;5.494;2022-08-23T07:46:20;28.20;99.90
13808;DHT22;40769;51.512;5.494;2022-08-23T07:48:46;28.40;99.90
13808;DHT22;40769;51.512;5.494;2022-08-23T07:51:12;28.50;99.90
13808;DHT22;40769;51.512;5.494;2022-08-23T07:53:39;28.80;99.90
13808;DHT22;40769;51.512;5.494;2022-08-23T07:56:10;28.90;99.90
13808;DHT22;40769;51.512;5.494;2022-08-23T07:58:36;29.20;99.90
13808;DHT22;40769;51.512;5.494;2022-08-23T08:01:12;29.30;99.90
13808;DHT22;40769;51.512;5.494;2022-08-23T08:03:41;29.50;99.90
13808;DHT22;40769;51.512;5.494;2022-08-23T08:06:14;29.70;99.90
13808;DHT22;40769;51.512;5.494;2022-08-23T08:08:41;29.90;99.90
13808;DHT22;40769;51.512;5.494;2022-08-23T08:11:12;30.10;99.90
13808;DHT22;40769;51.512;5.494;2022-08-23T08:13:42;30.30;99.90
13808;DHT22;40769;51.512;5.494;2022-08-23T08:16:17;30.50;99.90
13808;DHT22;40769;51.512;5.494;2022-08-23T08:18:43;30.70;99.90
13808;DHT22;40769;51.512;5.494;2022-08-23T08:21:13;30.90;99.90
13808;DHT22;40769;51.512;5.494;2022-08-23T08:23:39;31.10;99.90
13808;DHT22;40769;51.512;5.494;2022-08-23T08:26:06;31.20;99.90
13808;DHT22;40769;51.512;5.494;2022-08-23T08:28:33;31.40;99.90
13808;DHT22;40769;51.512;5.494;2022-08-23T08:30:59;31.50;99.90
13808;DHT22;40769;51.512;5.494;2022-08-23T08:33:25;31.70;99.90
13808;DHT22;40769;51.512;5.494;2022-08-23T08:35:51;31.90;99.90
13808;DHT22;40769;51.512;5.494;2022-08-23T08:38:18;32.00;99.90
13808;DHT22;40769;51.512;5.494;2022-08-23T08:40:44;32.20;99.90
13808;DHT22;40769;51.512;5.494;2022-08-23T08:43:35;32.30;99.90
13808;DHT22;40769;51.512;5.494;2022-08-23T08:48:38;32.60;99.90
13808;DHT22;40769;51.512;5.494;2022-08-23T08:53:53;32.90;99.90
13808;DHT22;40769;51.512;5.494;2022-08-23T08:56:30;33.10;99.90
13808;DHT22;40769;51.512;5.494;2022-08-23T08:59:02;33.20;99.90
13808;DHT22;40769;51.512;5.494;2022-08-23T09:04:47;33.50;99.90
13808;DHT22;40769;51.512;5.494;2022-08-23T09:07:50;33.60;99.90
13808;DHT22;40769;51.512;5.494;2022-08-23T09:16:18;34.00;99.10
13808;DHT22;40769;51.512;5.494;2022-08-23T09:18:21;34.10;97.80
13808;DHT22;40769;51.512;5.494;2022-08-23T09:20:52;34.20;98.40
13808;DHT22;40769;51.512;5.494;2022-08-23T09:23:25;34.40;97.50
13808;DHT22;40769;51.512;5.494;2022-08-23T09:25:56;34.50;96.00
13808;DHT22;40769;51.512;5.494;2022-08-23T09:28:24;34.60;96.20
13808;DHT22;40769;51.512;5.494;2022-08-23T09:30:54;34.70;96.30
13808;DHT22;40769;51.512;5.494;2022-08-23T09:33:25;34.80;95.30
13808;DHT22;40769;51.512;5.494;2022-08-23T09:38:32;34.90;94.40
13808;DHT22;40769;51.512;5.494;2022-08-23T09:40:58;35.00;94.50
13808;DHT22;40769;51.512;5.494;2022-08-23T09:43:26;35.00;93.70
13808;DHT22;40769;51.512;5.494;2022-08-23T09:48:40;35.10;93.00
13808;DHT22;40769;51.512;5.494;2022-08-23T09:51:22;35.10;92.40
13808;DHT22;40769;51.512;5.494;2022-08-23T09:56:54;35.10;91.90
13808;DHT22;40769;51.512;5.494;2022-08-23T09:59:42;35.20;92.00
13808;DHT22;40769;51.512;5.494;2022-08-23T10:02:32;35.20;91.40
13808;DHT22;40769;51.512;5.494;2022-08-23T10:07:59;35.20;91.00
13808;DHT22;40769;51.512;5.494;2022-08-23T10:13:04;35.30;90.20
13808;DHT22;40769;51.512;5.494;2022-08-23T10:18:16;35.30;89.30
13808;DHT22;40769;51.512;5.494;2022-08-23T10:26:12;35.50;87.30
13808;DHT22;40769;51.512;5.494;2022-08-23T10:32:18;35.60;85.60
13808;DHT22;40769;51.512;5.494;2022-08-23T10:43:17;35.80;85.70
13808;DHT22;40769;51.512;5.494;2022-08-23T10:45:50;35.90;84.40
13808;DHT22;40769;51.512;5.494;2022-08-23T10:53:37;36.00;82.70
13808;DHT22;40769;51.512;5.494;2022-08-23T10:56:10;36.10;81.00
13808;DHT22;40769;51.512;5.494;2022-08-23T10:59:02;36.10;81.00
13808;DHT22;40769;51.512;5.494;2022-08-23T11:01:54;36.00;79.10
13808;DHT22;40769;51.512;5.494;2022-08-23T11:04:54;35.80;80.30
13808;DHT22;40769;51.512;5.494;2022-08-23T11:07:26;35.60;80.00
13808;DHT22;40769;51.512;5.494;2022-08-23T11:09:56;35.40;80.40
13808;DHT22;40769;51.512;5.494;2022-08-23T11:12:35;35.40;80.80
13808;DHT22;40769;51.512;5.494;2022-08-23T11:15:12;35.40;80.70
13808;DHT22;40769;51.512;5.494;2022-08-23T11:17:51;35.50;80.40
13808;DHT22;40769;51.512;5.494;2022-08-23T11:26:06;35.10;79.60
13808;DHT22;40769;51.512;5.494;2022-08-23T11:28:44;34.90;79.30
13808;DHT22;40769;51.512;5.494;2022-08-23T11:33:59;34.40;79.80
13808;DHT22;40769;51.512;5.494;2022-08-23T11:36:26;34.20;80.50
13808;DHT22;40769;51.512;5.494;2022-08-23T11:41:24;33.90;81.20
13808;DHT22;40769;51.512;5.494;2022-08-23T11:46:41;33.90;81.00
13808;DHT22;40769;51.512;5.494;2022-08-23T11:49:40;33.90;81.00
13808;DHT22;40769;51.512;5.494;2022-08-23T11:58:03;34.30;80.70
13808;DHT22;40769;51.512;5.494;2022-08-23T12:01:11;34.60;79.70
13808;DHT22;40769;51.512;5.494;2022-08-23T12:08:56;35.30;79.20
13808;DHT22;40769;51.512;5.494;2022-08-23T12:20:06;36.00;74.90
13808;DHT22;40769;51.512;5.494;2022-08-23T12:25:24;35.90;75.40
13808;DHT22;40769;51.512;5.494;2022-08-23T12:27:56;35.80;75.00
13808;DHT22;40769;51.512;5.494;2022-08-23T12:30:28;35.70;74.20
13808;DHT22;40769;51.512;5.494;2022-08-23T12:36:32;35.40;74.70
13808;DHT22;40769;51.512;5.494;2022-08-23T12:39:05;35.30;74.30
13808;DHT22;40769;51.512;5.494;2022-08-23T12:41:56;35.20;74.70
13808;DHT22;40769;51.512;5.494;2022-08-23T12:44:26;35.10;73.90
13808;DHT22;40769;51.512;5.494;2022-08-23T12:46:52;35.20;75.10
13808;DHT22;40769;51.512;5.494;2022-08-23T12:49:33;35.30;75.10
13808;DHT22;40769;51.512;5.494;2022-08-23T12:52:08;35.40;74.60
13808;DHT22;40769;51.512;5.494;2022-08-23T12:54:49;35.50;74.30
13808;DHT22;40769;51.512;5.494;2022-08-23T12:57:37;35.60;72.40
13808;DHT22;40769;51.512;5.494;2022-08-23T13:02:42;35.70;72.60
13808;DHT22;40769;51.512;5.494;2022-08-23T13:05:25;35.60;72.40
13808;DHT22;40769;51.512;5.494;2022-08-23T13:07:52;35.60;72.30
13808;DHT22;40769;51.512;5.494;2022-08-23T13:10:18;35.50;72.30
13808;DHT22;40769;51.512;5.494;2022-08-23T13:12:43;35.50;72.90
13808;DHT22;40769;51.512;5.494;2022-08-23T13:15:09;35.50;73.10
13808;DHT22;40769;51.512;5.494;2022-08-23T13:17:37;35.50;73.20
13808;DHT22;40769;51.512;5.494;2022-08-23T13:20:18;35.60;73.30
13808;DHT22;40769;51.512;5.494;2022-08-23T13:22:56;35.70;73.00
13808;DHT22;40769;51.512;5.494;2022-08-23T13:25:25;35.90;72.50
13808;DHT22;40769;51.512;5.494;2022-08-23T13:28:01;36.10;72.30
13808;DHT22;40769;51.512;5.494;2022-08-23T13:30:36;36.20;71.50
13808;DHT22;40769;51.512;5.494;2022-08-23T13:35:38;36.60;71.00
13808;DHT22;40769;51.512;5.494;2022-08-23T13:43:13;37.00;69.50
13808;DHT22;40769;51.512;5.494;2022-08-23T13:45:48;37.20;69.20
13808;DHT22;40769;51.512;5.494;2022-08-23T13:48:24;37.30;68.20
13808;DHT22;40769;51.512;5.494;2022-08-23T13:50:52;37.50;68.60
13808;DHT22;40769;51.512;5.494;2022-08-23T13:53:18;37.60;68.60
13808;DHT22;40769;51.512;5.494;2022-08-23T13:55:49;37.80;68.40
13808;DHT22;40769;51.512;5.494;2022-08-23T13:58:27;37.90;67.30
13808;DHT22;40769;51.512;5.494;2022-08-23T14:00:54;38.00;66.70
13808;DHT22;40769;51.512;5.494;2022-08-23T14:03:20;38.10;66.90
13808;DHT22;40769;51.512;5.494;2022-08-23T14:05:46;38.20;66.10
13808;DHT22;40769;51.512;5.494;2022-08-23T14:08:11;38.20;65.70
13808;DHT22;40769;51.512;5.494;2022-08-23T14:10:37;38.30;65.30
13808;DHT22;40769;51.512;5.494;2022-08-23T14:13:03;38.40;65.00
13808;DHT22;40769;51.512;5.494;2022-08-23T14:15:28;38.40;64.60
13808;DHT22;40769;51.512;5.494;2022-08-23T14:17:54;38.40;64.60
13808;DHT22;40769;51.512;5.494;2022-08-23T14:20:22;38.40;64.30
13808;DHT22;40769;51.512;5.494;2022-08-23T14:22:49;38.40;63.50
13808;DHT22;40769;51.512;5.494;2022-08-23T14:25:15;38.30;62.80
13808;DHT22;40769;51.512;5.494;2022-08-23T14:27:42;38.10;62.60
13808;DHT22;40769;51.512;5.494;2022-08-23T14:30:15;37.80;62.70
13808;DHT22;40769;51.512;5.494;2022-08-23T14:32:43;37.50;62.70
13808;DHT22;40769;51.512;5.494;2022-08-23T14:35:08;37.30;63.30
13808;DHT22;40769;51.512;5.494;2022-08-23T14:37:34;37.10;63.90
13808;DHT22;40769;51.512;5.494;2022-08-23T14:40:00;37.00;64.50
13808;DHT22;40769;51.512;5.494;2022-08-23T14:42:25;36.90;64.70
13808;DHT22;40769;51.512;5.494;2022-08-23T14:44:51;37.00;65.10
13808;DHT22;40769;51.512;5.494;2022-08-23T14:47:17;37.10;65.30
13808;DHT22;40769;51.512;5.494;2022-08-23T14:49:43;37.30;65.40
13808;DHT22;40769;51.512;5.494;2022-08-23T14:52:10;37.50;64.90
13808;DHT22;40769;51.512;5.494;2022-08-23T14:54:37;37.70;64.50
13808;DHT22;40769;51.512;5.494;2022-08-23T14:57:02;37.90;63.90
13808;DHT22;40769;51.512;5.494;2022-08-23T14:59:28;38.00;63.70
13808;DHT22;40769;51.512;5.494;2022-08-23T15:01:54;38.10;63.70
13808;DHT22;40769;51.512;5.494;2022-08-23T15:04:22;38.20;63.50
13808;DHT22;40769;51.512;5.494;2022-08-23T15:06:48;38.30;63.50
13808;DHT22;40769;51.512;5.494;2022-08-23T15:09:14;38.40;63.60
13808;DHT22;40769;51.512;5.494;2022-08-23T15:11:40;38.50;63.20
13808;DHT22;40769;51.512;5.494;2022-08-23T15:14:06;38.60;62.90
13808;DHT22;40769;51.512;5.494;2022-08-23T15:16:32;38.70;62.60
13808;DHT22;40769;51.512;5.494;2022-08-23T15:18:57;38.70;62.20
13808;DHT22;40769;51.512;5.494;2022-08-23T15:21:24;38.80;62.10
13808;DHT22;40769;51.512;5.494;2022-08-23T15:23:50;38.90;61.70
13808;DHT22;40769;51.512;5.494;2022-08-23T15:26:24;38.90;61.70
13808;DHT22;40769;51.512;5.494;2022-08-23T15:28:51;38.90;61.40
13808;DHT22;40769;51.512;5.494;2022-08-23T15:31:18;38.90;60.90
13808;DHT22;40769;51.512;5.494;2022-08-23T15:33:44;39.00;60.50
13808;DHT22;40769;51.512;5.494;2022-08-23T15:36:11;38.90;60.30
13808;DHT22;40769;51.512;5.494;2022-08-23T15:38:38;38.80;60.10
13808;DHT22;40769;51.512;5.494;2022-08-23T15:41:04;38.90;60.20
13808;DHT22;40769;51.512;5.494;2022-08-23T15:43:48;38.80;59.90
13808;DHT22;40769;51.512;5.494;2022-08-23T15:46:36;38.70;59.70
13808;DHT22;40769;51.512;5.494;2022-08-23T15:49:11;38.60;59.80
13808;DHT22;40769;51.512;5.494;2022-08-23T15:51:38;38.60;59.50
13808;DHT22;40769;51.512;5.494;2022-08-23T15:54:04;38.60;59.80
13808;DHT22;40769;51.512;5.494;2022-08-23T15:56:49;38.60;60.00
13808;DHT22;40769;51.512;5.494;2022-08-23T15:59:18;38.60;59.90
13808;DHT22;40769;51.512;5.494;2022-08-23T16:01:44;38.60;60.10
13808;DHT22;40769;51.512;5.494;2022-08-23T16:04:10;38.60;61.20
13808;DHT22;40769;51.512;5.494;2022-08-23T16:06:37;38.60;60.40
13808;DHT22;40769;51.512;5.494;2022-08-23T16:09:06;38.60;60.00
13808;DHT22;40769;51.512;5.494;2022-08-23T16:11:33;38.50;59.80
13808;DHT22;40769;51.512;5.494;2022-08-23T16:13:59;38.50;59.90
13808;DHT22;40769;51.512;5.494;2022-08-23T16:16:27;38.50;59.90
13808;DHT22;40769;51.512;5.494;2022-08-23T16:18:55;38.50;59.90
13808;DHT22;40769;51.512;5.494;2022-08-23T16:24:09;38.30;60.30
13808;DHT22;40769;51.512;5.494;2022-08-23T16:26:36;38.30;60.30
13808;DHT22;40769;51.512;5.494;2022-08-23T16:29:05;38.30;60.30
13808;DHT22;40769;51.512;5.494;2022-08-23T16:31:31;38.20;60.30
13808;DHT22;40769;51.512;5.494;2022-08-23T16:34:15;38.20;60.50
13808;DHT22;40769;51.512;5.494;2022-08-23T16:36:45;38.20;60.50
13808;DHT22;40769;51.512;5.494;2022-08-23T16:39:13;38.10;60.40
13808;DHT22;40769;51.512;5.494;2022-08-23T16:41:39;38.00;60.40
13808;DHT22;40769;51.512;5.494;2022-08-23T16:44:05;37.90;60.30
13808;DHT22;40769;51.512;5.494;2022-08-23T16:46:31;37.60;60.40
13808;DHT22;40769;51.512;5.494;2022-08-23T16:48:56;37.40;60.90
13808;DHT22;40769;51.512;5.494;2022-08-23T16:51:22;37.20;61.30
13808;DHT22;40769;51.512;5.494;2022-08-23T16:53:48;37.10;61.70
13808;DHT22;40769;51.512;5.494;2022-08-23T16:56:14;37.00;61.80
13808;DHT22;40769;51.512;5.494;2022-08-23T16:58:41;36.90;61.90
13808;DHT22;40769;51.512;5.494;2022-08-23T17:01:17;36.80;62.20
13808;DHT22;40769;51.512;5.494;2022-08-23T17:03:45;36.60;62.50
13808;DHT22;40769;51.512;5.494;2022-08-23T17:06:11;36.50;62.30
13808;DHT22;40769;51.512;5.494;2022-08-23T17:08:37;36.40;62.40
13808;DHT22;40769;51.512;5.494;2022-08-23T17:11:04;36.30;62.40
13808;DHT22;40769;51.512;5.494;2022-08-23T17:13:32;36.10;62.90
13808;DHT22;40769;51.512;5.494;2022-08-23T17:15:58;35.90;63.20
13808;DHT22;40769;51.512;5.494;2022-08-23T17:18:24;35.80;63.60
13808;DHT22;40769;51.512;5.494;2022-08-23T17:20:50;35.60;63.60
13808;DHT22;40769;51.512;5.494;2022-08-23T17:23:15;35.50;63.80
13808;DHT22;40769;51.512;5.494;2022-08-23T17:25:41;35.20;63.80
13808;DHT22;40769;51.512;5.494;2022-08-23T17:28:12;35.00;64.10
13808;DHT22;40769;51.512;5.494;2022-08-23T17:30:39;34.70;64.60
13808;DHT22;40769;51.512;5.494;2022-08-23T17:33:05;34.40;65.00
13808;DHT22;40769;51.512;5.494;2022-08-23T17:35:31;34.10;65.80